Time;durP1;ratioP1;P1;durP2;ratioP2;P2;SDS_P1;SDS_P2;PMS_P1;PMS_P2;Temp;Humidity;BMP_temperature;BMP_pressure;BME280_temperature;BME280_humidity;BME280_pressure;Samples;Min_cycle;Max_cycle;Signal;HPM_P1;HPM_P2
2022/01/24 00:00:54;;;;;;;9.27;8.97;;;4.80;99.90;;;;;;5157806;27;20951;-84
2022/01/24 00:03:28;;;;;;;9.60;9.30;;;4.80;99.90;;;;;;5157442;27;20227;-82
2022/01/24 00:08:48;;;;;;;9.83;9.53;;;4.60;99.90;;;;;;5136101;27;20224;-83
2022/01/24 00:11:37;;;;;;;9.97;9.67;;;4.60;99.90;;;;;;5136467;27;20232;-83
2022/01/24 00:14:47;;;;;;;9.60;9.30;;;4.60;99.90;;;;;;5169580;27;20211;-82
2022/01/24 00:17:35;;;;;;;9.70;9.40;;;4.60;99.90;;;;;;5169835;27;20279;-82
2022/01/24 00:28:51;;;;;;;9.57;9.27;;;4.70;99.90;;;;;;5158521;27;20212;-84
2022/01/24 00:31:29;;;;;;;9.80;9.50;;;4.70;99.90;;;;;;5157153;27;20231;-83
2022/01/24 00:34:12;;;;;;;9.73;9.43;;;4.80;99.90;;;;;;5156847;27;20216;-83
2022/01/24 00:36:46;;;;;;;9.70;9.40;;;4.80;99.90;;;;;;5156849;27;20311;-83
2022/01/24 00:39:20;;;;;;;9.70;9.40;;;4.80;99.90;;;;;;5157740;27;20234;-83
2022/01/24 00:42:04;;;;;;;9.77;9.47;;;4.90;99.90;;;;;;5156245;27;20330;-83
2022/01/24 00:47:42;;;;;;;9.90;9.60;;;4.90;99.90;;;;;;5156746;27;20284;-83
2022/01/24 00:53:30;;;;;;;9.70;9.40;;;4.90;99.90;;;;;;5147970;27;20220;-83
2022/01/24 00:56:09;;;;;;;9.90;9.60;;;4.90;99.90;;;;;;5143149;27;20220;-82
2022/01/24 00:58:39;;;;;;;9.70;9.40;;;4.90;99.90;;;;;;5143391;27;20230;-83
2022/01/24 01:01:25;;;;;;;9.50;9.20;;;4.90;99.90;;;;;;5143131;27;20235;-82
2022/01/24 01:04:02;;;;;;;9.80;9.50;;;4.90;99.90;;;;;;5143178;27;20228;-82
2022/01/24 01:06:39;;;;;;;9.40;9.10;;;4.90;99.90;;;;;;5143290;27;20223;-83
2022/01/24 01:20:29;;;;;;;9.40;9.10;;;4.80;99.90;;;;;;5125881;27;20236;-82
2022/01/24 01:25:45;;;;;;;9.63;9.33;;;4.70;99.90;;;;;;5121243;28;20282;-83
2022/01/24 01:28:23;;;;;;;10.00;9.70;;;4.70;99.90;;;;;;5121359;28;20247;-83
2022/01/24 01:31:04;;;;;;;9.80;9.50;;;4.70;99.90;;;;;;5121881;28;20236;-83
2022/01/24 01:33:48;;;;;;;9.97;9.67;;;4.70;99.90;;;;;;5121176;28;20232;-83
2022/01/24 01:36:37;;;;;;;9.93;9.63;;;4.70;99.90;;;;;;5121015;28;20229;-83
2022/01/24 01:53:26;;;;;;;9.83;9.53;;;4.60;99.90;;;;;;5123510;28;20223;-83
2022/01/24 01:55:56;;;;;;;10.00;9.70;;;4.60;99.90;;;;;;5122937;28;20227;-83
2022/01/24 01:58:25;;;;;;;9.67;9.37;;;4.60;99.90;;;;;;5122576;28;20225;-83
2022/01/24 02:01:05;;;;;;;9.90;9.60;;;4.70;99.90;;;;;;5122261;28;20237;-83
2022/01/24 02:03:34;;;;;;;9.90;9.60;;;4.70;99.90;;;;;;5121572;27;20289;-83
2022/01/24 02:06:02;;;;;;;10.13;9.83;;;4.70;99.90;;;;;;5121777;28;20228;-83
2022/01/24 02:08:41;;;;;;;9.87;9.57;;;4.70;99.90;;;;;;5121529;28;20224;-83
2022/01/24 02:11:14;;;;;;;9.90;9.60;;;4.70;99.90;;;;;;5121505;28;20225;-83
2022/01/24 02:13:49;;;;;;;9.67;9.37;;;4.70;99.90;;;;;;5123016;28;20241;-83
2022/01/24 02:16:26;;;;;;;9.87;9.57;;;4.70;99.90;;;;;;5141146;27;20227;-82
2022/01/24 02:19:08;;;;;;;9.67;9.37;;;4.70;99.90;;;;;;5141382;27;20216;-82
2022/01/24 02:33:09;;;;;;;9.80;9.50;;;4.80;99.90;;;;;;5138522;27;20184;-82
2022/01/24 02:35:43;;;;;;;9.80;9.50;;;4.80;99.90;;;;;;5141184;27;20228;-82
2022/01/24 02:38:38;;;;;;;9.70;9.40;;;4.80;99.90;;;;;;5141349;27;20303;-82
2022/01/24 02:49:29;;;;;;;9.80;9.50;;;4.80;99.90;;;;;;5103688;28;20210;-77
2022/01/24 02:52:05;;;;;;;9.90;9.60;;;4.80;99.90;;;;;;5113051;28;20247;-77
2022/01/24 02:54:36;;;;;;;9.80;9.50;;;4.70;99.90;;;;;;5121755;28;20250;-77
2022/01/24 02:57:07;;;;;;;9.80;9.50;;;4.80;99.90;;;;;;5121331;28;20259;-78
2022/01/24 02:59:35;;;;;;;9.60;9.30;;;4.80;99.90;;;;;;5119943;28;20282;-78
2022/01/24 03:02:05;;;;;;;9.80;9.50;;;4.80;99.90;;;;;;5100013;28;20225;-78
2022/01/24 03:04:32;;;;;;;9.60;9.30;;;4.80;99.90;;;;;;5099953;28;20306;-80
2022/01/24 03:07:00;;;;;;;9.80;9.50;;;4.70;99.90;;;;;;5099935;28;20229;-77
2022/01/24 03:09:28;;;;;;;9.80;9.50;;;4.70;99.90;;;;;;5100111;28;20280;-77
2022/01/24 03:12:05;;;;;;;9.60;9.30;;;4.70;99.90;;;;;;5099498;28;20236;-77
2022/01/24 03:14:35;;;;;;;9.77;9.47;;;4.70;99.90;;;;;;5103522;28;20221;-77
2022/01/24 03:17:04;;;;;;;9.80;9.50;;;4.70;99.90;;;;;;5101722;28;20247;-77
2022/01/24 03:19:33;;;;;;;9.60;9.30;;;4.70;99.90;;;;;;5102247;28;20233;-77
2022/01/24 03:22:00;;;;;;;9.60;9.30;;;4.70;99.90;;;;;;5100902;28;20233;-78
2022/01/24 03:24:28;;;;;;;9.50;9.20;;;4.80;99.90;;;;;;5101995;28;20229;-77
2022/01/24 03:26:58;;;;;;;9.50;9.20;;;4.80;99.90;;;;;;5100997;28;20234;-78
2022/01/24 03:29:25;;;;;;;9.90;9.60;;;4.80;99.90;;;;;;5100812;28;20233;-78
2022/01/24 03:31:53;;;;;;;9.70;9.40;;;4.70;99.90;;;;;;5100681;28;20241;-77
2022/01/24 03:34:21;;;;;;;9.73;9.43;;;4.70;99.90;;;;;;5100401;28;20217;-77
2022/01/24 03:36:49;;;;;;;9.70;9.40;;;4.80;99.90;;;;;;5100417;28;20230;-78
2022/01/24 03:39:16;;;;;;;9.50;9.20;;;4.80;99.90;;;;;;5102555;28;20225;-78
2022/01/24 03:41:45;;;;;;;9.50;9.20;;;4.80;99.90;;;;;;5102340;28;20229;-77
2022/01/24 03:44:24;;;;;;;9.83;9.53;;;4.80;99.90;;;;;;5106943;28;20214;-78
2022/01/24 03:47:12;;;;;;;9.80;9.50;;;4.90;99.90;;;;;;5107169;28;20233;-78
2022/01/24 03:49:47;;;;;;;9.60;9.30;;;4.80;99.90;;;;;;5106681;28;20271;-78
2022/01/24 03:52:19;;;;;;;9.47;9.17;;;4.80;99.90;;;;;;5124766;28;20232;-78
2022/01/24 03:54:52;;;;;;;9.60;9.30;;;4.80;99.90;;;;;;5126973;28;20223;-78
2022/01/24 03:57:23;;;;;;;9.70;9.40;;;4.80;99.90;;;;;;5127546;28;20225;-78
2022/01/24 03:59:55;;;;;;;9.43;9.13;;;4.70;99.90;;;;;;5127902;28;20278;-78
2022/01/24 04:02:31;;;;;;;9.53;9.23;;;4.70;99.90;;;;;;5124750;28;20270;-79
2022/01/24 04:05:00;;;;;;;9.27;8.97;;;4.70;99.90;;;;;;5124883;28;20220;-78
2022/01/24 04:07:29;;;;;;;9.17;8.87;;;4.70;99.90;;;;;;5123638;28;20251;-78
2022/01/24 04:10:05;;;;;;;9.70;9.40;;;4.60;99.90;;;;;;5124373;28;20282;-78
2022/01/24 04:12:34;;;;;;;9.47;9.17;;;4.50;99.90;;;;;;5123568;28;20295;-79
2022/01/24 04:15:26;;;;;;;9.40;9.10;;;4.40;99.90;;;;;;5123625;28;20262;-78
2022/01/24 04:18:12;;;;;;;9.50;9.20;;;4.40;99.90;;;;;;5124165;28;20280;-78
2022/01/24 04:23:29;;;;;;;8.90;8.70;;;4.50;99.90;;;;;;5124039;28;20225;-78
2022/01/24 04:25:59;;;;;;;9.37;9.07;;;4.50;99.90;;;;;;5123766;28;20251;-78
2022/01/24 04:28:27;;;;;;;9.50;9.20;;;4.40;99.90;;;;;;5124079;27;20229;-79
2022/01/24 04:30:59;;;;;;;9.10;8.80;;;4.50;99.90;;;;;;5125744;28;20658;-79
2022/01/24 04:33:27;;;;;;;9.37;9.07;;;4.50;99.90;;;;;;5125582;28;20237;-79
2022/01/24 04:35:55;;;;;;;9.43;9.13;;;4.50;99.90;;;;;;5126387;28;20229;-78
2022/01/24 04:38:24;;;;;;;9.50;9.20;;;4.40;99.90;;;;;;5126990;28;20243;-78
2022/01/24 04:40:58;;;;;;;9.60;9.30;;;4.40;99.90;;;;;;5126643;28;20228;-79
2022/01/24 04:43:47;;;;;;;9.50;9.20;;;4.40;99.90;;;;;;5125814;28;20365;-79
2022/01/24 04:46:42;;;;;;;9.80;9.50;;;4.40;99.90;;;;;;5124484;28;20216;-79
2022/01/24 04:52:09;;;;;;;9.50;9.20;;;4.40;99.90;;;;;;5126338;28;20252;-79
2022/01/24 04:54:42;;;;;;;9.53;9.23;;;4.20;99.90;;;;;;5131359;28;20238;-78
2022/01/24 04:57:12;;;;;;;9.73;9.43;;;4.20;99.90;;;;;;5130152;28;20232;-79
2022/01/24 04:59:42;;;;;;;9.73;9.43;;;4.30;99.90;;;;;;5127853;28;20286;-79
2022/01/24 05:02:11;;;;;;;9.90;9.60;;;4.30;99.90;;;;;;5127880;28;20259;-79
2022/01/24 05:04:39;;;;;;;9.70;9.40;;;4.40;99.90;;;;;;5129072;28;20233;-79
2022/01/24 05:07:08;;;;;;;10.00;9.70;;;4.40;99.90;;;;;;5128004;28;20229;-79
2022/01/24 05:09:40;;;;;;;9.70;9.40;;;4.50;99.90;;;;;;5131525;28;20236;-79
2022/01/24 05:12:16;;;;;;;9.80;9.50;;;4.50;99.90;;;;;;5136220;28;20236;-79
2022/01/24 05:25:52;;;;;;;9.57;9.27;;;4.60;99.90;;;;;;5126583;28;20221;-80
2022/01/24 05:28:22;;;;;;;9.60;9.30;;;4.70;99.90;;;;;;5127250;28;20225;-79
2022/01/24 05:30:52;;;;;;;9.67;9.37;;;4.60;99.90;;;;;;5127135;28;20230;-79
2022/01/24 05:33:24;;;;;;;9.50;9.20;;;4.60;99.90;;;;;;5128670;28;20239;-79
2022/01/24 05:35:54;;;;;;;9.57;9.27;;;4.60;99.90;;;;;;5131461;28;20235;-79
2022/01/24 05:38:22;;;;;;;9.60;9.30;;;4.70;99.90;;;;;;5130498;28;20221;-78
2022/01/24 05:40:52;;;;;;;9.40;9.10;;;4.70;99.90;;;;;;5127294;28;20640;-79
2022/01/24 05:43:20;;;;;;;9.70;9.40;;;4.60;99.90;;;;;;5125633;28;20229;-79
2022/01/24 05:45:48;;;;;;;9.53;9.23;;;4.60;99.90;;;;;;5125573;28;20750;-79
2022/01/24 05:48:17;;;;;;;9.60;9.30;;;4.60;99.90;;;;;;5124986;28;20221;-79
2022/01/24 05:50:58;;;;;;;9.40;9.10;;;4.60;99.90;;;;;;5124637;28;20233;-79
2022/01/24 05:53:35;;;;;;;9.50;9.20;;;4.70;99.90;;;;;;5124818;28;20290;-79
2022/01/24 05:56:05;;;;;;;9.43;9.13;;;4.70;99.90;;;;;;5124670;28;20245;-79
2022/01/24 05:58:34;;;;;;;9.20;8.90;;;4.60;99.90;;;;;;5124911;28;20228;-78
2022/01/24 06:01:05;;;;;;;9.60;9.30;;;4.60;99.90;;;;;;5124572;28;20236;-79
2022/01/24 06:03:33;;;;;;;9.70;9.40;;;4.70;99.90;;;;;;5124100;28;20229;-79
2022/01/24 06:06:07;;;;;;;9.67;9.37;;;4.70;99.90;;;;;;5128954;28;20251;-78
2022/01/24 06:08:35;;;;;;;9.30;9.00;;;4.70;99.90;;;;;;5128797;28;20225;-78
2022/01/24 06:11:03;;;;;;;9.33;9.03;;;4.70;99.90;;;;;;5128060;28;20239;-78
2022/01/24 06:13:31;;;;;;;9.50;9.20;;;4.70;99.90;;;;;;5124816;28;20229;-79
2022/01/24 06:16:01;;;;;;;9.33;9.03;;;4.70;99.90;;;;;;5125073;28;20225;-79
2022/01/24 06:18:30;;;;;;;9.47;9.17;;;4.70;99.90;;;;;;5124260;28;20242;-79
2022/01/24 06:21:00;;;;;;;9.27;8.97;;;4.70;99.90;;;;;;5124263;28;20228;-79
2022/01/24 06:23:38;;;;;;;9.30;9.00;;;4.70;99.90;;;;;;5123699;28;20236;-78
2022/01/24 06:26:10;;;;;;;9.50;9.20;;;4.70;99.90;;;;;;5123720;28;20223;-78
2022/01/24 06:28:38;;;;;;;9.60;9.30;;;4.60;99.90;;;;;;5123717;28;20229;-79
2022/01/24 06:31:07;;;;;;;9.30;9.00;;;4.40;99.90;;;;;;5123501;28;20324;-79
2022/01/24 06:33:37;;;;;;;9.40;9.10;;;4.40;99.90;;;;;;5123888;28;20233;-78
2022/01/24 06:36:07;;;;;;;9.50;9.20;;;4.40;99.90;;;;;;5124409;28;20266;-79
2022/01/24 06:38:37;;;;;;;9.67;9.37;;;4.50;99.90;;;;;;5123825;28;20228;-78
2022/01/24 06:41:05;;;;;;;9.33;9.03;;;4.50;99.90;;;;;;5123407;28;20239;-79
2022/01/24 06:43:34;;;;;;;9.20;8.90;;;4.60;99.90;;;;;;5116295;28;20244;-79
2022/01/24 06:46:05;;;;;;;9.23;8.93;;;4.70;99.90;;;;;;5109473;28;20754;-78
2022/01/24 06:48:32;;;;;;;8.67;8.47;;;4.70;99.90;;;;;;5102923;28;20228;-79
2022/01/24 06:51:04;;;;;;;9.13;8.83;;;4.70;99.90;;;;;;5113074;28;20939;-77
2022/01/24 06:53:32;;;;;;;9.37;9.07;;;4.80;99.90;;;;;;5113757;28;20236;-79
2022/01/24 06:56:07;;;;;;;9.30;9.00;;;4.80;99.90;;;;;;5103317;28;20315;-78
2022/01/24 06:58:39;;;;;;;9.67;9.37;;;4.70;99.90;;;;;;5103484;28;20247;-78
2022/01/24 07:01:08;;;;;;;9.60;9.30;;;4.70;99.90;;;;;;5103615;28;20233;-78
2022/01/24 07:03:38;;;;;;;9.70;9.40;;;4.70;99.90;;;;;;5104906;28;20244;-79
2022/01/24 07:06:08;;;;;;;9.47;9.17;;;4.70;99.90;;;;;;5105468;28;20233;-79
2022/01/24 07:08:37;;;;;;;9.20;8.90;;;4.70;99.90;;;;;;5104955;28;20222;-79
2022/01/24 07:11:09;;;;;;;9.70;9.40;;;4.50;99.90;;;;;;5103592;28;20229;-79
2022/01/24 07:13:37;;;;;;;9.77;9.47;;;4.50;99.90;;;;;;5103313;28;20264;-78
2022/01/24 07:16:06;;;;;;;9.70;9.40;;;4.50;99.90;;;;;;5102830;28;20233;-79
2022/01/24 07:21:19;;;;;;;10.07;9.77;;;4.30;99.90;;;;;;5101498;28;20283;-78
2022/01/24 07:23:47;;;;;;;9.50;9.20;;;4.30;99.90;;;;;;5115114;28;20248;-79
2022/01/24 07:26:16;;;;;;;9.60;9.30;;;4.40;99.90;;;;;;5112568;28;20226;-78
2022/01/24 07:28:44;;;;;;;9.70;9.40;;;4.40;99.90;;;;;;5118040;28;20278;-78
2022/01/24 07:31:12;;;;;;;9.93;9.63;;;4.40;99.90;;;;;;5122191;28;20295;-78
2022/01/24 07:33:40;;;;;;;10.23;9.93;;;4.40;99.90;;;;;;5122330;28;20258;-77
2022/01/24 07:36:08;;;;;;;10.13;9.83;;;4.30;99.90;;;;;;5128717;28;20285;-77
2022/01/24 07:38:36;;;;;;;9.90;9.60;;;4.30;99.90;;;;;;5129017;28;20286;-77
2022/01/24 07:41:03;;;;;;;10.10;9.80;;;4.40;99.90;;;;;;5120675;28;20233;-80
2022/01/24 07:43:33;;;;;;;9.80;9.50;;;4.50;99.90;;;;;;5118648;28;20236;-77
2022/01/24 07:46:00;;;;;;;10.00;9.70;;;4.40;99.90;;;;;;5118535;28;20281;-78
2022/01/24 07:48:28;;;;;;;9.63;9.33;;;4.40;99.90;;;;;;5118669;28;20684;-79
2022/01/24 07:50:56;;;;;;;9.97;9.67;;;4.30;99.90;;;;;;5120220;28;20247;-79
2022/01/24 07:53:24;;;;;;;9.88;9.57;;;4.30;99.90;;;;;;5119188;28;20381;-80
2022/01/24 07:55:53;;;;;;;10.00;9.70;;;4.20;99.90;;;;;;5122976;28;20224;-81
2022/01/24 07:58:21;;;;;;;10.20;9.90;;;4.30;99.90;;;;;;5123149;28;20897;-80
2022/01/24 08:00:51;;;;;;;10.00;9.70;;;4.30;99.90;;;;;;5121115;28;20251;-80
2022/01/24 08:03:19;;;;;;;10.00;9.70;;;4.20;99.90;;;;;;5123106;27;20240;-81
2022/01/24 08:05:47;;;;;;;9.53;9.23;;;4.20;99.90;;;;;;5125028;28;20267;-81
2022/01/24 08:08:15;;;;;;;9.60;9.30;;;4.20;99.90;;;;;;5126127;28;20319;-80
2022/01/24 08:10:43;;;;;;;9.43;9.13;;;4.20;99.90;;;;;;5132675;28;20228;-82
2022/01/24 08:13:13;;;;;;;9.90;9.60;;;4.20;99.90;;;;;;5127774;28;20229;-81
2022/01/24 08:15:41;;;;;;;9.73;9.43;;;4.10;99.90;;;;;;5127710;28;20229;-80
2022/01/24 08:18:11;;;;;;;10.00;9.70;;;4.20;99.90;;;;;;5126370;28;20279;-81
2022/01/24 08:20:39;;;;;;;9.70;9.40;;;4.20;99.90;;;;;;5124970;28;20434;-82
2022/01/24 08:23:07;;;;;;;9.30;9.00;;;4.30;99.90;;;;;;5117454;28;20258;-82
2022/01/24 08:25:34;;;;;;;9.27;8.97;;;4.20;99.90;;;;;;5121038;28;20228;-81
2022/01/24 08:28:11;;;;;;;9.60;9.30;;;4.20;99.90;;;;;;5126804;28;20224;-82
2022/01/24 08:30:39;;;;;;;9.73;9.43;;;4.20;99.90;;;;;;5128262;28;20212;-81
2022/01/24 08:33:07;;;;;;;9.90;9.60;;;4.20;99.90;;;;;;5127626;28;20256;-84
2022/01/24 08:35:39;;;;;;;9.60;9.30;;;4.20;99.90;;;;;;5127576;28;20346;-82
2022/01/24 08:38:06;;;;;;;9.47;9.17;;;4.30;99.90;;;;;;5127100;28;20278;-81
2022/01/24 08:40:37;;;;;;;9.50;9.20;;;4.30;99.90;;;;;;5127615;28;20258;-82
2022/01/24 08:47:01;;;;;;;10.60;10.30;;;4.30;99.90;;;;;;5087832;28;20273;-84
2022/01/24 08:50:26;;;;;;;10.40;10.10;;;4.90;99.90;;;;;;5076603;28;20238;-82
2022/01/24 09:04:58;;;;;;;9.40;9.10;;;4.70;99.90;;;;;;5017321;28;20315;-85
2022/01/24 09:23:20;;;;;;;10.00;9.70;;;4.20;99.90;;;;;;4960802;28;20329;-84
2022/01/24 09:48:58;;;;;;;10.00;9.70;;;4.10;99.90;;;;;;5023592;28;20226;-84
2022/01/24 09:59:33;;;;;;;;;;;;;;;;;;;;;
2022/01/24 10:02:19;;;;;;;9.80;9.50;;;4.20;99.90;;;;;;4862653;29;20239;-85
2022/01/24 10:05:42;;;;;;;9.80;9.50;;;4.10;99.90;;;;;;5070386;28;20227;-84
2022/01/24 10:16:24;;;;;;;9.80;9.50;;;4.10;99.90;;;;;;5016599;28;20233;-83
2022/01/24 10:49:01;;;;;;;9.90;9.60;;;4.20;99.90;;;;;;4978821;28;20233;-86
2022/01/24 11:03:39;;;;;;;9.90;9.60;;;4.10;99.90;;;;;;4863220;29;20225;-84
2022/01/24 11:07:10;;;;;;;9.97;9.67;;;4.20;99.90;;;;;;4928284;28;20251;-84
2022/01/24 12:00:26;;;;;;;9.50;9.20;;;4.60;99.90;;;;;;5026586;28;20299;-84
2022/01/24 12:06:24;;;;;;;9.40;9.10;;;4.70;99.90;;;;;;5099524;28;20328;-84
2022/01/24 12:09:46;;;;;;;9.30;9.00;;;4.80;99.90;;;;;;5099827;28;20217;-84
2022/01/24 12:23:35;;;;;;;10.00;9.70;;;4.70;99.90;;;;;;5056173;28;20766;-84
2022/01/24 12:30:18;;;;;;;;;;;;;;;;;;;;;
2022/01/24 12:48:53;;;;;;;9.40;9.10;;;4.70;99.90;;;;;;5035593;28;20219;-83
2022/01/24 12:53:54;;;;;;;9.60;9.30;;;4.80;99.90;;;;;;5100044;28;20328;-85
2022/01/24 13:00:23;;;;;;;9.60;9.30;;;4.80;99.90;;;;;;5030131;28;20225;-84
2022/01/24 13:02:55;;;;;;;9.80;9.50;;;4.80;99.90;;;;;;5085165;28;20226;-84
2022/01/24 13:05:28;;;;;;;9.73;9.43;;;4.80;99.90;;;;;;5080517;28;20238;-85
2022/01/24 13:12:00;;;;;;;9.30;9.00;;;4.90;99.90;;;;;;4975997;28;20249;-85
2022/01/24 13:21:27;;;;;;;9.40;9.10;;;4.90;99.90;;;;;;5018662;28;20224;-81
2022/01/24 13:24:06;;;;;;;9.50;9.20;;;4.90;99.90;;;;;;5016902;28;20423;-82
2022/01/24 13:27:14;;;;;;;8.93;8.73;;;4.90;99.90;;;;;;5017258;28;20224;-82
2022/01/24 13:29:52;;;;;;;9.33;9.03;;;4.80;99.90;;;;;;5016328;28;20231;-81
2022/01/24 13:58:08;;;;;;;9.70;9.40;;;4.20;99.90;;;;;;5015227;28;20271;-79
2022/01/24 14:00:39;;;;;;;9.90;9.60;;;4.20;99.90;;;;;;5032587;28;20241;-83
2022/01/24 14:03:14;;;;;;;9.60;9.30;;;4.20;99.90;;;;;;5081569;28;20281;-82
2022/01/24 14:06:26;;;;;;;9.60;9.30;;;4.20;99.90;;;;;;5080884;28;20205;-84
2022/01/24 14:10:33;;;;;;;;;;;;;;;;;;;;;
2022/01/24 14:13:24;;;;;;;9.50;9.20;;;4.20;99.90;;;;;;5079227;28;20303;-81
2022/01/24 14:20:19;;;;;;;9.23;8.93;;;4.30;99.90;;;;;;5072646;28;20230;-82
2022/01/24 14:23:46;;;;;;;9.00;8.80;;;4.30;99.90;;;;;;5079629;28;20325;-82
2022/01/24 14:34:26;;;;;;;8.70;8.50;;;4.30;99.90;;;;;;5015314;28;20311;-81
2022/01/24 14:38:09;;;;;;;8.57;8.37;;;4.40;99.90;;;;;;5026854;28;20242;-80
2022/01/24 14:41:34;;;;;;;8.90;8.70;;;4.50;99.90;;;;;;5077692;28;20226;-81
2022/01/24 14:46:54;;;;;;;9.20;8.90;;;4.50;99.90;;;;;;5095642;28;20222;-84
2022/01/24 14:49:27;;;;;;;9.50;9.20;;;4.50;99.90;;;;;;5099733;28;20341;-83
2022/01/24 14:51:59;;;;;;;9.30;9.00;;;4.40;99.90;;;;;;5104418;28;20222;-82
2022/01/24 14:54:37;;;;;;;8.90;8.70;;;4.40;99.90;;;;;;5101983;28;20218;-82
2022/01/24 14:57:08;;;;;;;9.13;8.87;;;4.40;99.90;;;;;;5080008;28;20211;-82
2022/01/24 14:59:38;;;;;;;9.27;8.97;;;4.20;99.90;;;;;;5077520;28;20262;-84
2022/01/24 15:02:13;;;;;;;9.07;8.80;;;4.10;99.90;;;;;;5076445;28;20230;-83
2022/01/24 15:04:44;;;;;;;9.40;9.10;;;4.10;99.90;;;;;;5080365;28;20294;-84
2022/01/24 15:10:09;;;;;;;9.50;9.20;;;4.10;99.90;;;;;;5088640;28;20234;-84
2022/01/24 15:16:12;;;;;;;9.40;9.10;;;4.00;99.90;;;;;;5087246;28;20234;-83
2022/01/24 15:24:35;;;;;;;9.33;9.03;;;3.90;99.90;;;;;;5068836;28;20226;-87
2022/01/24 15:27:28;;;;;;;9.50;9.20;;;3.90;99.90;;;;;;5067571;28;20223;-82
2022/01/24 15:30:03;;;;;;;9.60;9.30;;;3.90;99.90;;;;;;5066513;28;20223;-82
2022/01/24 15:32:33;;;;;;;9.50;9.20;;;4.00;99.90;;;;;;5067799;28;20253;-84
2022/01/24 15:35:02;;;;;;;9.57;9.27;;;3.90;99.90;;;;;;5067492;28;20241;-82
2022/01/24 15:37:32;;;;;;;9.80;9.50;;;3.90;99.90;;;;;;5067870;28;20321;-82
2022/01/24 15:40:01;;;;;;;9.40;9.10;;;3.90;99.90;;;;;;5066509;28;20306;-82
2022/01/24 15:42:45;;;;;;;9.27;8.97;;;3.90;99.90;;;;;;5067114;28;20241;-84
2022/01/24 15:50:53;;;;;;;9.13;8.83;;;3.90;99.90;;;;;;5068171;28;20280;-83
2022/01/24 15:53:22;;;;;;;8.83;8.63;;;3.90;99.90;;;;;;5067423;28;20238;-84
2022/01/24 15:56:13;;;;;;;8.63;8.43;;;3.90;99.90;;;;;;5067542;28;20237;-83
2022/01/24 15:58:47;;;;;;;8.60;8.40;;;3.80;99.90;;;;;;5066774;28;20260;-83
2022/01/24 16:01:17;;;;;;;8.23;8.03;;;3.80;99.90;;;;;;5068937;28;20230;-83
2022/01/24 16:06:57;;;;;;;8.60;8.40;;;3.80;99.90;;;;;;5066010;28;20234;-83
2022/01/24 16:12:25;;;;;;;7.90;7.70;;;3.90;99.90;;;;;;5065409;28;20234;-85
2022/01/24 16:18:12;;;;;;;8.30;8.10;;;3.90;99.90;;;;;;5071704;28;20227;-82
2022/01/24 16:21:01;;;;;;;8.13;7.93;;;3.90;99.90;;;;;;5072967;28;20229;-83
2022/01/24 16:23:33;;;;;;;8.40;8.20;;;4.00;99.90;;;;;;5071061;28;20242;-81
2022/01/24 16:26:01;;;;;;;8.33;8.13;;;4.00;99.90;;;;;;5077126;28;20298;-82
2022/01/24 16:28:38;;;;;;;8.30;8.10;;;4.00;99.90;;;;;;5084621;28;20222;-82
2022/01/24 16:31:18;;;;;;;8.17;7.97;;;4.00;99.90;;;;;;5094869;28;20225;-82
2022/01/24 16:33:46;;;;;;;8.27;8.07;;;4.10;99.90;;;;;;5079638;28;20219;-83
2022/01/24 16:36:16;;;;;;;8.30;8.10;;;4.10;99.90;;;;;;5069123;28;20223;-83
2022/01/24 16:38:47;;;;;;;8.33;8.13;;;4.20;99.90;;;;;;5069234;28;20250;-82
2022/01/24 16:41:35;;;;;;;8.47;8.27;;;4.20;99.90;;;;;;5070658;28;20246;-83
2022/01/24 16:44:19;;;;;;;8.10;7.90;;;4.10;99.90;;;;;;5072356;28;20231;-83
2022/01/24 16:47:10;;;;;;;8.30;8.10;;;4.20;99.90;;;;;;5069282;28;20238;-82
2022/01/24 16:49:57;;;;;;;8.33;8.13;;;4.20;99.90;;;;;;5070903;28;20219;-82
2022/01/24 16:52:33;;;;;;;8.90;8.70;;;4.10;99.90;;;;;;5069405;28;20394;-82
2022/01/24 16:55:03;;;;;;;8.87;8.67;;;4.00;99.90;;;;;;5071421;28;20430;-82
2022/01/24 16:57:33;;;;;;;8.80;8.60;;;4.00;99.90;;;;;;5071072;28;20227;-83
2022/01/24 17:00:02;;;;;;;8.37;8.17;;;4.00;99.90;;;;;;5070217;28;20227;-82
2022/01/24 17:05:18;;;;;;;8.67;8.47;;;3.90;99.90;;;;;;5068408;28;20227;-81
2022/01/24 17:07:48;;;;;;;8.63;8.43;;;3.90;99.90;;;;;;5071255;28;20230;-84
2022/01/24 17:10:19;;;;;;;8.50;8.30;;;3.90;99.90;;;;;;5075257;28;20238;-81
2022/01/24 17:12:48;;;;;;;8.60;8.40;;;3.90;99.90;;;;;;5072713;28;20254;-81
2022/01/24 17:15:18;;;;;;;8.37;8.17;;;4.00;99.90;;;;;;5074225;28;20282;-82
2022/01/24 17:17:55;;;;;;;8.40;8.20;;;4.00;99.90;;;;;;5082633;28;20233;-82
2022/01/24 17:20:24;;;;;;;8.20;8.00;;;4.00;99.90;;;;;;5099048;28;20288;-82
2022/01/24 17:22:54;;;;;;;7.80;7.60;;;4.10;99.90;;;;;;5094898;28;20234;-82
2022/01/24 17:25:23;;;;;;;7.60;7.40;;;4.10;99.90;;;;;;5092007;28;20218;-82
2022/01/24 17:27:54;;;;;;;7.90;7.70;;;4.10;99.90;;;;;;5093480;28;20263;-83
2022/01/24 17:30:23;;;;;;;8.10;7.90;;;4.20;99.90;;;;;;5092473;28;20317;-82
2022/01/24 17:35:38;;;;;;;8.20;8.00;;;4.10;99.90;;;;;;5071788;28;20254;-82
2022/01/24 17:38:08;;;;;;;8.23;8.03;;;4.10;99.90;;;;;;5072825;28;20218;-82
2022/01/24 17:40:37;;;;;;;8.27;8.07;;;4.10;99.90;;;;;;5072723;28;20310;-84
2022/01/24 17:43:06;;;;;;;8.63;8.43;;;4.10;99.90;;;;;;5071671;28;20249;-83
2022/01/24 17:45:36;;;;;;;8.30;8.10;;;4.10;99.90;;;;;;5072106;28;20222;-83
2022/01/24 17:48:14;;;;;;;8.10;7.90;;;4.00;99.90;;;;;;5072651;28;20253;-82
2022/01/24 17:50:44;;;;;;;8.10;7.90;;;4.10;99.90;;;;;;5074075;28;20226;-81
2022/01/24 17:53:13;;;;;;;8.20;8.00;;;4.10;99.90;;;;;;5071340;28;20301;-82
2022/01/24 17:55:42;;;;;;;7.80;7.60;;;4.00;99.90;;;;;;5073212;28;20287;-82
2022/01/24 17:58:11;;;;;;;8.03;7.83;;;4.00;99.90;;;;;;5071587;28;20253;-82
2022/01/24 18:00:42;;;;;;;8.20;8.00;;;4.10;99.90;;;;;;5070872;28;20238;-82
2022/01/24 18:03:13;;;;;;;7.80;7.60;;;4.10;99.90;;;;;;5072094;28;20237;-82
2022/01/24 18:05:42;;;;;;;7.93;7.73;;;4.10;99.90;;;;;;5072197;28;20222;-83
2022/01/24 18:08:11;;;;;;;8.30;8.10;;;4.10;99.90;;;;;;5069746;28;20231;-82
2022/01/24 18:10:40;;;;;;;8.20;8.00;;;4.10;99.90;;;;;;5070185;28;20235;-81
2022/01/24 18:13:09;;;;;;;8.10;7.90;;;4.20;99.90;;;;;;5069549;28;20219;-81
2022/01/24 18:15:38;;;;;;;8.27;8.07;;;4.20;99.90;;;;;;5069722;28;20245;-82
2022/01/24 18:18:34;;;;;;;8.30;8.10;;;4.20;99.90;;;;;;5069453;28;20261;-81
2022/01/24 18:21:06;;;;;;;8.20;8.00;;;4.30;99.90;;;;;;5069182;28;20231;-82
2022/01/24 18:23:36;;;;;;;8.00;7.80;;;4.30;99.90;;;;;;5070375;28;20223;-83
2022/01/24 18:26:10;;;;;;;7.90;7.70;;;4.30;99.90;;;;;;5068818;28;20238;-84
2022/01/24 18:28:42;;;;;;;8.30;8.10;;;4.20;99.90;;;;;;5070868;28;20233;-84
2022/01/24 18:31:10;;;;;;;8.10;7.90;;;4.20;99.90;;;;;;5070741;28;20231;-82
2022/01/24 18:33:42;;;;;;;7.93;7.73;;;4.20;99.90;;;;;;5067421;28;20231;-83
2022/01/24 18:36:10;;;;;;;8.00;7.80;;;4.20;99.90;;;;;;5069230;28;20241;-83
2022/01/24 18:38:38;;;;;;;8.30;8.10;;;4.20;99.90;;;;;;5069728;28;20227;-83
2022/01/24 18:41:08;;;;;;;8.17;7.97;;;4.30;99.90;;;;;;5069228;28;20318;-83
2022/01/24 18:43:40;;;;;;;8.50;8.30;;;4.30;99.90;;;;;;5068291;28;20273;-83
2022/01/24 18:46:09;;;;;;;8.30;8.10;;;4.20;99.90;;;;;;5067639;28;20227;-81
2022/01/24 18:48:42;;;;;;;8.40;8.20;;;4.20;99.90;;;;;;5068261;28;20238;-82
2022/01/24 18:51:16;;;;;;;8.53;8.33;;;4.20;99.90;;;;;;5069476;28;20294;-83
2022/01/24 18:53:45;;;;;;;8.37;8.17;;;4.20;99.90;;;;;;5067976;28;20230;-83
2022/01/24 18:56:13;;;;;;;8.10;7.90;;;4.20;99.90;;;;;;5069696;28;20241;-83
2022/01/24 18:58:41;;;;;;;8.47;8.27;;;4.10;99.90;;;;;;5069339;28;20238;-83
2022/01/24 19:01:10;;;;;;;8.07;7.87;;;4.10;99.90;;;;;;5070095;28;20234;-82
2022/01/24 19:03:56;;;;;;;8.30;8.10;;;4.10;99.90;;;;;;5067985;28;20230;-83
2022/01/24 19:06:24;;;;;;;8.20;8.00;;;4.10;99.90;;;;;;5068268;28;20819;-82
2022/01/24 19:09:12;;;;;;;8.13;7.93;;;4.10;99.90;;;;;;5068392;28;20231;-82
2022/01/24 19:11:44;;;;;;;8.20;8.00;;;4.00;99.90;;;;;;5070249;28;20215;-79
2022/01/24 19:14:12;;;;;;;8.60;8.40;;;4.10;99.90;;;;;;5068829;28;20211;-83
2022/01/24 19:17:27;;;;;;;8.20;8.00;;;4.00;99.90;;;;;;5068522;28;20218;-82
2022/01/24 19:23:17;;;;;;;8.43;8.23;;;3.90;99.90;;;;;;5070273;28;20215;-81
2022/01/24 19:25:48;;;;;;;8.60;8.40;;;4.00;99.90;;;;;;5072806;28;20322;-82
2022/01/24 19:28:17;;;;;;;8.73;8.53;;;4.00;99.90;;;;;;5071597;28;20229;-80
2022/01/24 19:30:45;;;;;;;8.90;8.70;;;4.00;99.90;;;;;;5085206;28;20290;-80
2022/01/24 19:33:15;;;;;;;8.73;8.53;;;4.00;99.90;;;;;;5088852;28;20292;-81
2022/01/24 19:35:51;;;;;;;8.80;8.60;;;4.00;99.90;;;;;;5070453;28;20238;-81
2022/01/24 19:38:31;;;;;;;8.90;8.70;;;3.90;99.90;;;;;;5070189;28;20231;-81
2022/01/24 19:41:00;;;;;;;8.83;8.63;;;3.90;99.90;;;;;;5069252;28;20226;-81
2022/01/24 19:43:29;;;;;;;9.23;8.93;;;4.00;99.90;;;;;;5068947;28;20249;-81
2022/01/24 19:45:59;;;;;;;9.23;8.93;;;4.00;99.90;;;;;;5087175;28;20231;-83
2022/01/24 19:48:30;;;;;;;9.13;8.93;;;4.10;99.90;;;;;;5087339;28;20234;-82
2022/01/24 19:51:08;;;;;;;8.70;8.50;;;4.20;99.90;;;;;;5090971;28;20265;-83
2022/01/24 19:53:57;;;;;;;9.37;9.07;;;4.20;99.90;;;;;;5071591;28;20238;-82
2022/01/24 19:56:32;;;;;;;9.60;9.30;;;4.30;99.90;;;;;;5079506;28;20293;-82